Time;durP1;ratioP1;P1;durP2;ratioP2;P2;SDS_P1;SDS_P2;PMS_P1;PMS_P2;Temp;Humidity;BMP_temperature;BMP_pressure;BME280_temperature;BME280_humidity;BME280_pressure;Samples;Min_cycle;Max_cycle;Signal;HPM_P1;HPM_P2
2023/11/21 00:00:23;;;;;;;;;;;;;;;21.27;26.83;97623.25;5037450;28;940;-72
2023/11/21 00:02:49;;;;;;;;;;;;;;;21.17;27.25;97618.72;5037698;28;1898;-73
2023/11/21 00:05:15;;;;;;;;;;;;;;;21.30;26.99;97615.94;5038748;28;1131;-73
2023/11/21 00:07:41;;;;;;;;;;;;;;;21.11;27.25;97609.22;5040907;28;986;-73
2023/11/21 00:10:10;;;;;;;;;;;;;;;20.62;27.80;97617.91;5041308;28;979;-73
2023/11/21 00:12:36;;;;;;;;;;;;;;;20.25;28.68;97622.94;5016595;28;956;-74
2023/11/21 00:15:01;;;;;;;;;;;;;;;20.47;28.21;97628.06;5016623;28;981;-72
2023/11/21 00:17:27;;;;;;;;;;;;;;;20.83;27.59;97627.84;5000412;28;1148;-72
2023/11/21 00:19:53;;;;;;;;;;;;;;;20.92;27.47;97624.34;5000078;28;892;-73
2023/11/21 00:22:18;;;;;;;;;;;;;;;20.95;27.72;97623.44;5000101;28;1039;-73
2023/11/21 00:24:44;;;;;;;;;;;;;;;21.17;27.25;97621.53;5000170;28;1970;-73
2023/11/21 00:27:10;;;;;;;;;;;;;;;21.44;27.13;97614.69;4999114;28;1074;-74
2023/11/21 00:29:35;;;;;;;;;;;;;;;21.21;27.02;97624.28;5000142;28;1047;-73
2023/11/21 00:32:01;;;;;;;;;;;;;;;20.98;27.20;97623.31;4976779;28;998;-74
2023/11/21 00:34:27;;;;;;;;;;;;;;;21.10;27.02;97618.94;4960928;28;1062;-73
2023/11/21 00:36:53;;;;;;;;;;;;;;;20.76;27.67;97614.69;4945138;28;1112;-73
2023/11/21 00:39:20;;;;;;;;;;;;;;;21.12;27.27;97605.13;4977219;28;973;-73
2023/11/21 00:41:45;;;;;;;;;;;;;;;21.18;27.16;97620.28;4961114;28;1003;-73
2023/11/21 00:44:11;;;;;;;;;;;;;;;21.28;27.09;97607.06;4972130;28;1974;-73
2023/11/21 00:46:36;;;;;;;;;;;;;;;21.44;26.94;97609.00;4977121;28;978;-73
2023/11/21 00:49:04;;;;;;;;;;;;;;;21.55;26.63;97615.13;4977034;28;994;-73
2023/11/21 00:51:29;;;;;;;;;;;;;;;21.13;26.98;97605.91;4976831;28;1119;-73
2023/11/21 00:53:55;;;;;;;;;;;;;;;21.36;26.76;97611.28;4976863;28;1000;-73
2023/11/21 00:56:20;;;;;;;;;;;;;;;21.28;26.55;97609.91;4973485;28;1015;-74
2023/11/21 00:58:49;;;;;;;;;;;;;;;21.11;26.98;97609.22;4941205;29;1176;-74
2023/11/21 01:01:18;;;;;;;;;;;;;;;21.01;27.51;97604.69;4925783;29;967;-74
2023/11/21 01:03:43;;;;;;;;;;;;;;;20.59;28.08;97616.00;4972436;28;1914;-73
2023/11/21 01:06:09;;;;;;;;;;;;;;;21.11;27.42;97609.22;4947739;28;1264;-73
2023/11/21 01:08:35;;;;;;;;;;;;;;;21.22;27.22;97620.97;4979997;28;982;-73
2023/11/21 01:11:01;;;;;;;;;;;;;;;21.50;26.72;97610.03;4995796;28;952;-74
2023/11/21 01:13:28;;;;;;;;;;;;;;;21.17;27.16;97596.09;4963660;28;931;-73
2023/11/21 01:15:53;;;;;;;;;;;;;;;21.01;27.25;97610.34;4979603;28;980;-73
2023/11/21 01:18:19;;;;;;;;;;;;;;;20.79;27.60;97610.19;4995826;28;1006;-73
2023/11/21 01:20:46;;;;;;;;;;;;;;;21.00;27.25;97617.25;4985230;28;991;-72
2023/11/21 01:23:14;;;;;;;;;;;;;;;20.95;27.56;97626.28;5018960;28;1906;-73
2023/11/21 01:25:40;;;;;;;;;;;;;;;21.26;27.07;97627.34;4986038;28;1481;-74
2023/11/21 01:28:06;;;;;;;;;;;;;;;21.36;26.94;97619.78;5019061;28;1131;-73
2023/11/21 01:30:32;;;;;;;;;;;;;;;21.44;26.82;97617.50;5006890;28;1588;-73
2023/11/21 01:32:58;;;;;;;;;;;;;;;21.27;27.06;97616.81;5039540;28;1127;-73
2023/11/21 01:35:23;;;;;;;;;;;;;;;21.40;26.72;97614.00;5039259;28;909;-73
2023/11/21 01:37:49;;;;;;;;;;;;;;;20.89;27.15;97622.44;5015440;28;977;-74
2023/11/21 01:40:14;;;;;;;;;;;;;;;20.98;26.97;97611.22;4998667;28;912;-73
2023/11/21 01:42:41;;;;;;;;;;;;;;;20.90;27.06;97621.19;4998656;28;1903;-74
2023/11/21 01:45:06;;;;;;;;;;;;;;;21.02;27.50;97606.25;4998636;28;1173;-73
2023/11/21 01:47:33;;;;;;;;;;;;;;;21.05;27.34;97606.16;4998559;28;1458;-74
2023/11/21 01:49:59;;;;;;;;;;;;;;;21.15;27.05;97609.91;4998512;28;988;-73
2023/11/21 01:52:24;;;;;;;;;;;;;;;21.21;26.90;97602.44;4998248;28;1036;-74
2023/11/21 01:54:50;;;;;;;;;;;;;;;21.33;26.70;97600.88;4981877;28;937;-74
2023/11/21 01:57:15;;;;;;;;;;;;;;;21.24;27.02;97601.53;4998500;28;968;-73
2023/11/21 01:59:42;;;;;;;;;;;;;;;21.32;26.59;97602.91;4998407;28;1092;-73
2023/11/21 02:02:07;;;;;;;;;;;;;;;21.05;27.05;97611.03;4998644;28;927;-73
2023/11/21 02:04:35;;;;;;;;;;;;;;;20.68;27.72;97610.50;4978064;28;1985;-74
2023/11/21 02:07:05;;;;;;;;;;;;;;;20.76;27.90;97611.84;4994681;28;1271;-73
2023/11/21 02:09:31;;;;;;;;;;;;;;;21.04;27.22;97600.97;4955612;28;1188;-73
2023/11/21 02:11:58;;;;;;;;;;;;;;;21.17;27.11;97601.75;4940033;29;1428;-73
2023/11/21 02:14:24;;;;;;;;;;;;;;;21.23;26.98;97599.13;4956147;29;938;-73
2023/11/21 02:16:51;;;;;;;;;;;;;;;21.22;27.25;97601.19;4917525;29;896;-73
2023/11/21 02:19:22;;;;;;;;;;;;;;;21.08;27.09;97604.44;4917944;29;1075;-74
2023/11/21 02:21:54;;;;;;;;;;;;;;;20.61;27.89;97607.84;4879863;29;1128;-73
2023/11/21 02:24:23;;;;;;;;;;;;;;;21.03;27.02;97607.84;4864672;29;1914;-73
2023/11/21 02:26:51;;;;;;;;;;;;;;;21.03;27.11;97613.50;4864617;29;1064;-73
2023/11/21 02:29:18;;;;;;;;;;;;;;;21.09;27.21;97611.72;4861679;29;1115;-73
2023/11/21 02:31:48;;;;;;;;;;;;;;;21.10;26.95;97612.50;4846222;29;1092;-73
2023/11/21 02:34:16;;;;;;;;;;;;;;;21.12;26.82;97605.13;4846527;29;1186;-74
2023/11/21 02:36:42;;;;;;;;;;;;;;;21.29;26.89;97606.59;4863989;29;1265;-73
2023/11/21 02:39:08;;;;;;;;;;;;;;;21.13;27.02;97598.22;4879928;29;988;-73
2023/11/21 02:41:34;;;;;;;;;;;;;;;20.92;27.11;97594.00;4897459;29;1182;-74
2023/11/21 02:44:00;;;;;;;;;;;;;;;21.16;27.06;97600.16;4919572;29;1896;-73
2023/11/21 02:46:25;;;;;;;;;;;;;;;21.18;27.34;97608.97;4936369;29;1034;-73
2023/11/21 02:48:53;;;;;;;;;;;;;;;21.19;27.11;97604.94;4935631;29;1128;-73
2023/11/21 02:51:18;;;;;;;;;;;;;;;21.31;27.13;97607.00;4933234;29;1052;-73
2023/11/21 02:53:46;;;;;;;;;;;;;;;21.30;26.89;97604.63;4931305;28;1045;-73
2023/11/21 02:56:12;;;;;;;;;;;;;;;21.09;27.12;97589.06;4994226;28;1361;-73
2023/11/21 02:58:37;;;;;;;;;;;;;;;20.94;27.32;97605.69;4990645;28;1819;-73
2023/11/21 03:01:05;;;;;;;;;;;;;;;21.23;26.62;97605.59;4974789;28;1041;-74
2023/11/21 03:03:30;;;;;;;;;;;;;;;20.49;27.77;97617.09;4974457;28;1984;-75
2023/11/21 03:05:56;;;;;;;;;;;;;;;20.69;27.81;97622.59;4990894;28;1227;-73
2023/11/21 03:08:22;;;;;;;;;;;;;;;21.11;27.14;97620.53;4958632;28;1363;-74
2023/11/21 03:10:48;;;;;;;;;;;;;;;21.16;27.08;97631.28;4974641;28;989;-73
2023/11/21 03:13:13;;;;;;;;;;;;;;;21.12;27.14;97633.41;4991059;28;1512;-73
2023/11/21 03:15:39;;;;;;;;;;;;;;;20.92;27.47;97635.66;4990400;28;1006;-73
2023/11/21 03:18:04;;;;;;;;;;;;;;;20.86;27.32;97640.28;4990805;28;1194;-73
2023/11/21 03:20:30;;;;;;;;;;;;;;;20.97;26.90;97643.56;4991237;28;1115;-73
2023/11/21 03:22:56;;;;;;;;;;;;;;;21.06;27.18;97640.88;4974634;28;1902;-73
2023/11/21 03:25:23;;;;;;;;;;;;;;;21.27;26.65;97640.22;4990930;28;1101;-74
2023/11/21 03:27:49;;;;;;;;;;;;;;;21.08;26.83;97649.69;5013426;28;995;-73
2023/11/21 03:30:15;;;;;;;;;;;;;;;21.18;26.84;97625.94;5037410;28;985;-74
2023/11/21 03:32:41;;;;;;;;;;;;;;;21.18;26.66;97625.94;5037975;28;978;-73
2023/11/21 03:35:07;;;;;;;;;;;;;;;21.23;26.81;97627.44;5021812;28;1254;-72
2023/11/21 03:37:33;;;;;;;;;;;;;;;21.02;27.00;97628.88;5021390;28;1231;-74
2023/11/21 03:39:58;;;;;;;;;;;;;;;20.70;27.31;97630.63;5021466;28;1182;-73
2023/11/21 03:42:26;;;;;;;;;;;;;;;21.07;27.04;97626.28;5055497;28;944;-73
2023/11/21 03:44:52;;;;;;;;;;;;;;;21.08;27.34;97618.59;5038125;28;1926;-73
2023/11/21 03:47:17;;;;;;;;;;;;;;;21.19;27.04;97624.72;5037422;28;1100;-73
2023/11/21 03:49:43;;;;;;;;;;;;;;;21.10;27.27;97627.44;5021061;28;925;-73
2023/11/21 03:52:09;;;;;;;;;;;;;;;21.18;27.21;97620.28;5055704;28;925;-73
2023/11/21 03:54:34;;;;;;;;;;;;;;;20.75;27.47;97621.59;5037682;28;1684;-74
2023/11/21 03:57:00;;;;;;;;;;;;;;;20.76;27.50;97633.69;5037755;28;1162;-73
2023/11/21 03:59:25;;;;;;;;;;;;;;;20.93;27.25;97637.22;5021082;28;1154;-73
2023/11/21 04:01:51;;;;;;;;;;;;;;;20.99;27.59;97639.06;5039403;28;951;-73
2023/11/21 04:04:16;;;;;;;;;;;;;;;21.02;27.37;97640.19;5024457;28;1984;-73
2023/11/21 04:06:42;;;;;;;;;;;;;;;21.22;27.18;97648.50;5024692;28;1240;-73
2023/11/21 04:09:07;;;;;;;;;;;;;;;21.07;27.15;97639.63;5024448;28;1064;-73
2023/11/21 04:11:33;;;;;;;;;;;;;;;21.18;27.40;97631.63;5040960;28;986;-74
2023/11/21 04:13:59;;;;;;;;;;;;;;;21.26;27.03;97630.16;5041143;28;1018;-74
2023/11/21 04:16:24;;;;;;;;;;;;;;;20.92;27.35;97635.66;5024372;28;1115;-73
2023/11/21 04:18:50;;;;;;;;;;;;;;;20.72;27.81;97639.44;5024141;28;941;-74
2023/11/21 04:21:15;;;;;;;;;;;;;;;20.60;28.12;97631.72;5058828;28;919;-73
2023/11/21 04:23:41;;;;;;;;;;;;;;;20.85;27.55;97635.88;5058687;28;1894;-73
2023/11/21 04:26:06;;;;;;;;;;;;;;;21.04;27.38;97646.22;5040746;28;954;-73
2023/11/21 04:28:32;;;;;;;;;;;;;;;21.18;27.29;97637.28;5040777;28;853;-72
2023/11/21 04:30:57;;;;;;;;;;;;;;;21.03;27.04;97641.78;5040686;28;917;-74
2023/11/21 04:33:23;;;;;;;;;;;;;;;20.80;27.29;97635.16;5023988;28;900;-74
2023/11/21 04:35:49;;;;;;;;;;;;;;;20.70;27.69;97636.28;5023896;28;972;-74
2023/11/21 04:38:14;;;;;;;;;;;;;;;20.87;27.88;97641.84;5023494;28;1470;-73
2023/11/21 04:40:40;;;;;;;;;;;;;;;20.99;27.27;97635.47;5000639;28;1706;-73
2023/11/21 04:43:05;;;;;;;;;;;;;;;20.89;27.46;97643.00;4998875;28;1903;-73
2023/11/21 04:45:31;;;;;;;;;;;;;;;21.23;26.87;97650.84;4982867;28;1714;-73
2023/11/21 04:47:56;;;;;;;;;;;;;;;20.93;27.33;97654.19;4999397;28;1681;-74
2023/11/21 04:50:22;;;;;;;;;;;;;;;20.80;27.26;97657.78;4966699;28;1364;-73
2023/11/21 04:52:47;;;;;;;;;;;;;;;20.81;27.51;97653.72;4972379;28;1321;-73
2023/11/21 04:55:13;;;;;;;;;;;;;;;20.87;27.38;97656.00;4998966;28;1514;-74
2023/11/21 04:57:41;;;;;;;;;;;;;;;21.07;27.27;97656.59;4998684;28;1468;-74
2023/11/21 05:00:07;;;;;;;;;;;;;;;21.21;26.94;97647.69;4972961;28;1375;-72
2023/11/21 05:02:34;;;;;;;;;;;;;;;21.22;27.04;97654.94;4975270;28;1475;-73
2023/11/21 05:04:59;;;;;;;;;;;;;;;21.03;26.90;97653.09;4959933;28;1976;-73
2023/11/21 05:07:28;;;;;;;;;;;;;;;21.05;26.71;97659.91;4992125;28;1452;-73
2023/11/21 05:09:56;;;;;;;;;;;;;;;21.10;26.88;97664.22;4991874;28;1433;-73
2023/11/21 05:12:25;;;;;;;;;;;;;;;21.16;26.76;97662.41;4991573;28;1528;-73
2023/11/21 05:14:51;;;;;;;;;;;;;;;21.04;27.35;97660.34;4969712;28;1364;-73
2023/11/21 05:17:16;;;;;;;;;;;;;;;21.17;27.10;97663.19;4995404;28;1599;-73
2023/11/21 05:19:42;;;;;;;;;;;;;;;21.21;27.08;97656.19;4956463;29;1376;-73
2023/11/21 05:22:08;;;;;;;;;;;;;;;21.23;26.85;97662.19;4956516;28;1514;-74
2023/11/21 05:24:34;;;;;;;;;;;;;;;21.26;27.14;97654.84;4939934;29;1918;-74
2023/11/21 05:27:00;;;;;;;;;;;;;;;21.28;26.72;97661.63;4940265;29;1435;-74
2023/11/21 05:29:25;;;;;;;;;;;;;;;21.07;26.83;97665.88;4958742;28;1598;-73
2023/11/21 05:31:51;;;;;;;;;;;;;;;20.99;27.25;97663.75;4958597;28;1636;-73
2023/11/21 05:34:17;;;;;;;;;;;;;;;20.86;27.12;97665.72;4924376;29;1730;-73
2023/11/21 05:36:48;;;;;;;;;;;;;;;20.91;27.33;97665.19;4969416;28;1434;-73
2023/11/21 05:39:13;;;;;;;;;;;;;;;20.99;27.50;97658.88;4977820;28;1343;-74
2023/11/21 05:41:39;;;;;;;;;;;;;;;21.22;26.91;97652.09;4978558;28;1382;-73
2023/11/21 05:44:05;;;;;;;;;;;;;;;21.01;27.37;97662.03;4994610;28;1914;-74
2023/11/21 05:46:30;;;;;;;;;;;;;;;21.16;27.06;97668.06;4995074;28;1604;-73
2023/11/21 05:48:56;;;;;;;;;;;;;;;20.98;27.46;97673.44;4994382;28;1617;-73
2023/11/21 05:51:22;;;;;;;;;;;;;;;20.96;27.39;97675.94;4996796;28;1671;-73
2023/11/21 05:53:47;;;;;;;;;;;;;;;21.05;26.88;97673.25;4985237;28;1526;-73
2023/11/21 05:56:13;;;;;;;;;;;;;;;21.11;26.98;97671.44;5013828;28;1405;-74
2023/11/21 05:58:39;;;;;;;;;;;;;;;21.10;27.37;97672.69;5014042;28;1554;-73
2023/11/21 06:01:06;;;;;;;;;;;;;;;21.12;27.41;97677.91;5011467;28;1495;-74
2023/11/21 06:03:31;;;;;;;;;;;;;;;21.23;27.17;97678.38;5013323;28;1914;-73
2023/11/21 06:05:57;;;;;;;;;;;;;;;21.42;26.72;97679.44;5013702;28;1575;-74
2023/11/21 06:08:22;;;;;;;;;;;;;;;21.37;26.62;97691.31;4983074;28;1637;-72
2023/11/21 06:10:49;;;;;;;;;;;;;;;21.06;27.17;97686.16;5013088;28;1258;-73
2023/11/21 06:13:14;;;;;;;;;;;;;;;21.14;27.15;97687.53;4982026;28;1349;-73
2023/11/21 06:15:40;;;;;;;;;;;;;;;21.14;27.09;97692.38;4997687;28;1433;-73
2023/11/21 06:18:09;;;;;;;;;;;;;;;21.10;27.57;97692.50;5014025;28;1392;-73
2023/11/21 06:20:37;;;;;;;;;;;;;;;21.16;27.14;97707.69;4997191;28;1402;-74
2023/11/21 06:23:03;;;;;;;;;;;;;;;20.95;27.72;97703.44;4997109;28;1987;-73
2023/11/21 06:25:29;;;;;;;;;;;;;;;20.86;27.83;97710.97;4993559;28;1575;-74
2023/11/21 06:27:54;;;;;;;;;;;;;;;20.81;28.02;97712.31;4997261;28;1503;-73
2023/11/21 06:30:20;;;;;;;;;;;;;;;21.35;26.86;97702.28;4986399;28;1644;-74
2023/11/21 06:32:46;;;;;;;;;;;;;;;20.93;27.54;97700.25;4997483;28;1469;-73
2023/11/21 06:35:11;;;;;;;;;;;;;;;21.06;27.54;97705.94;4997366;28;1580;-74
2023/11/21 06:37:37;;;;;;;;;;;;;;;21.24;27.21;97692.09;5013995;28;1488;-73
2023/11/21 06:40:04;;;;;;;;;;;;;;;21.27;26.84;97694.00;5013270;28;1534;-73
2023/11/21 06:42:29;;;;;;;;;;;;;;;21.26;26.81;97697.28;4994366;28;1589;-74
2023/11/21 06:44:58;;;;;;;;;;;;;;;21.07;27.13;97699.03;5013697;28;1918;-73
2023/11/21 06:47:29;;;;;;;;;;;;;;;21.23;27.52;97690.47;4997079;28;1595;-74
2023/11/21 06:49:54;;;;;;;;;;;;;;;20.91;28.05;97690.63;4994381;28;1247;-73
2023/11/21 06:52:20;;;;;;;;;;;;;;;21.09;27.81;97696.56;4994543;28;1044;-73
2023/11/21 06:54:49;;;;;;;;;;;;;;;21.11;27.69;97694.06;5013292;28;1381;-74
2023/11/21 06:57:14;;;;;;;;;;;;;;;21.07;27.88;97690.56;4997783;28;939;-73
2023/11/21 06:59:40;;;;;;;;;;;;;;;20.77;28.09;97680.50;4997806;28;1278;-73
2023/11/21 07:02:06;;;;;;;;;;;;;;;20.71;27.77;97682.31;4971352;28;985;-74
2023/11/21 07:04:35;;;;;;;;;;;;;;;20.63;28.12;97681.72;4975166;28;1919;-73
2023/11/21 07:07:02;;;;;;;;;;;;;;;21.26;27.44;97698.06;4955424;29;1198;-74
2023/11/21 07:09:27;;;;;;;;;;;;;;;21.22;27.58;97688.91;4939830;29;947;-73
2023/11/21 07:11:54;;;;;;;;;;;;;;;21.25;27.51;97693.66;4955411;29;973;-73
2023/11/21 07:14:19;;;;;;;;;;;;;;;21.08;27.62;97690.09;4928344;28;1265;-72
2023/11/21 07:16:45;;;;;;;;;;;;;;;20.85;28.03;97681.91;4942160;28;1415;-74
2023/11/21 07:19:11;;;;;;;;;;;;;;;21.13;27.48;97691.59;4957989;28;1552;-73
2023/11/21 07:21:37;;;;;;;;;;;;;;;21.09;27.29;97690.91;4942020;28;1533;-74
2023/11/21 07:24:03;;;;;;;;;;;;;;;20.88;27.95;97685.84;4958217;28;1978;-73
2023/11/21 07:26:28;;;;;;;;;;;;;;;21.04;27.57;97688.66;4957853;28;1399;-73
2023/11/21 07:28:54;;;;;;;;;;;;;;;21.19;27.80;97691.81;4958230;28;1418;-74
2023/11/21 07:31:19;;;;;;;;;;;;;;;21.30;27.49;97690.31;4958686;28;1028;-73
2023/11/21 07:33:47;;;;;;;;;;;;;;;21.16;27.66;97690.69;4958709;28;1285;-73
2023/11/21 07:36:12;;;;;;;;;;;;;;;21.12;27.29;97692.03;4976687;28;937;-73
2023/11/21 07:38:38;;;;;;;;;;;;;;;20.74;27.87;97693.53;4986439;28;932;-73
2023/11/21 07:41:04;;;;;;;;;;;;;;;20.76;27.94;97688.19;5021758;28;884;-73
2023/11/21 07:43:34;;;;;;;;;;;;;;;21.09;27.71;97685.25;5004997;28;1902;-74
2023/11/21 07:46:03;;;;;;;;;;;;;;;21.48;27.19;97694.63;5039394;28;1356;-72
2023/11/21 07:48:29;;;;;;;;;;;;;;;21.39;27.21;97691.66;5021697;28;1050;-73
2023/11/21 07:50:55;;;;;;;;;;;;;;;21.23;27.66;97707.44;5021489;28;1228;-73
2023/11/21 07:53:21;;;;;;;;;;;;;;;21.22;27.45;97711.53;5021588;28;1096;-73
2023/11/21 07:55:47;;;;;;;;;;;;;;;21.11;27.49;97713.88;5037269;28;1546;-73
2023/11/21 07:58:13;;;;;;;;;;;;;;;20.98;27.66;97721.53;4995306;28;1580;-73
2023/11/21 08:00:39;;;;;;;;;;;;;;;21.05;27.57;97715.69;4993935;28;1194;-73
2023/11/21 08:03:05;;;;;;;;;;;;;;;21.08;27.91;97718.38;4977819;28;1985;-73
2023/11/21 08:05:31;;;;;;;;;;;;;;;21.10;27.90;97709.47;4976668;28;1509;-73
2023/11/21 08:07:56;;;;;;;;;;;;;;;20.91;28.30;97701.94;4961003;28;1443;-73
2023/11/21 08:10:22;;;;;;;;;;;;;;;21.12;27.93;97701.31;4967292;28;1635;-73
2023/11/21 08:12:48;;;;;;;;;;;;;;;21.27;27.57;97713.81;4961026;28;1413;-73
2023/11/21 08:15:14;;;;;;;;;;;;;;;21.26;27.48;97697.28;4996410;28;1477;-75
2023/11/21 08:17:39;;;;;;;;;;;;;;;21.26;27.36;97695.25;4964161;28;1440;-73
2023/11/21 08:20:06;;;;;;;;;;;;;;;21.05;27.64;97695.88;4980349;28;1595;-74
2023/11/21 08:22:31;;;;;;;;;;;;;;;21.10;27.81;97703.81;4964499;28;1240;-73
2023/11/21 08:24:57;;;;;;;;;;;;;;;20.97;27.89;97709.41;4980769;28;1993;-73
2023/11/21 08:27:23;;;;;;;;;;;;;;;21.32;27.56;97716.09;5012776;28;1360;-73
2023/11/21 08:29:48;;;;;;;;;;;;;;;21.19;27.93;97712.44;5016237;28;1545;-73
2023/11/21 08:32:14;;;;;;;;;;;;;;;21.49;27.41;97713.19;5000735;28;1326;-77
2023/11/21 08:34:42;;;;;;;;;;;;;;;21.72;27.08;97709.25;5016081;28;1710;-74
2023/11/21 08:37:08;;;;;;;;;;;;;;;21.76;27.26;97710.72;4993488;28;2114;-72
2023/11/21 08:39:33;;;;;;;;;;;;;;;21.43;27.49;97717.81;4994208;28;1713;-75
2023/11/21 08:41:59;;;;;;;;;;;;;;;21.18;27.89;97710.03;5015837;28;1932;-75
2023/11/21 08:44:24;;;;;;;;;;;;;;;20.89;28.72;97716.53;5012782;28;1902;-74
2023/11/21 08:46:50;;;;;;;;;;;;;;;20.60;29.21;97713.69;5000533;28;1807;-72
2023/11/21 08:49:17;;;;;;;;;;;;;;;20.71;28.96;97711.38;4997171;28;1721;-75
2023/11/21 08:51:43;;;;;;;;;;;;;;;20.69;29.05;97708.19;5013465;28;1869;-75
2023/11/21 08:54:11;;;;;;;;;;;;;;;21.27;28.39;97708.16;4998245;28;1678;-74
2023/11/21 08:56:37;;;;;;;;;;;;;;;21.54;28.11;97704.91;4997026;28;1818;-75
2023/11/21 08:59:03;;;;;;;;;;;;;;;21.68;27.64;97702.91;4996585;28;1765;-74
2023/11/21 09:01:31;;;;;;;;;;;;;;;21.35;28.34;97702.28;5013338;28;1830;-74
2023/11/21 09:03:57;;;;;;;;;;;;;;;21.59;27.77;97689.41;5012598;28;1985;-74
2023/11/21 09:06:22;;;;;;;;;;;;;;;20.84;28.83;97693.66;5005980;28;1528;-74
2023/11/21 09:08:48;;;;;;;;;;;;;;;21.27;28.39;97691.16;5015265;28;1937;-74
2023/11/21 09:11:13;;;;;;;;;;;;;;;21.45;27.98;97678.53;5015061;28;1607;-74
2023/11/21 09:13:39;;;;;;;;;;;;;;;21.17;28.54;97683.78;4998925;28;1658;-74
2023/11/21 09:16:05;;;;;;;;;;;;;;;21.55;27.86;97681.06;5015044;28;1561;-74
2023/11/21 09:18:31;;;;;;;;;;;;;;;21.46;28.24;97674.47;5014530;28;1615;-75
2023/11/21 09:20:56;;;;;;;;;;;;;;;21.03;28.69;97675.72;4999224;28;1330;-74
2023/11/21 09:23:22;;;;;;;;;;;;;;;21.33;28.47;97675.25;5015337;28;1978;-74
2023/11/21 09:25:49;;;;;;;;;;;;;;;20.71;28.97;97683.09;5015032;28;1353;-74
2023/11/21 09:28:15;;;;;;;;;;;;;;;21.08;28.60;97678.00;4999062;28;969;-73
2023/11/21 09:30:41;;;;;;;;;;;;;;;20.97;28.75;97671.84;4998826;28;1151;-74
2023/11/21 09:33:06;;;;;;;;;;;;;;;21.53;28.02;97662.91;5015327;28;1014;-74
2023/11/21 09:35:32;;;;;;;;;;;;;;;21.27;28.01;97673.41;4998556;28;945;-75
2023/11/21 09:37:57;;;;;;;;;;;;;;;21.33;28.13;97661.09;4998583;28;1377;-74
2023/11/21 09:40:23;;;;;;;;;;;;;;;20.99;28.50;97663.75;4998701;28;1250;-74
2023/11/21 09:42:56;;;;;;;;;;;;;;;21.43;28.04;97658.38;4997144;28;1125;-74
2023/11/21 09:45:25;;;;;;;;;;;;;;;21.32;27.76;97659.50;4975745;28;1046;-74
2023/11/21 09:47:52;;;;;;;;;;;;;;;21.44;27.75;97654.31;4959488;28;991;-74
2023/11/21 09:50:27;;;;;;;;;;;;;;;21.17;28.18;97661.16;4959712;28;1249;-74
2023/11/21 09:52:54;;;;;;;;;;;;;;;21.53;27.46;97645.94;4975628;28;947;-74
2023/11/21 09:55:21;;;;;;;;;;;;;;;20.97;28.56;97649.22;4959498;28;1006;-74
2023/11/21 09:57:48;;;;;;;;;;;;;;;21.12;28.43;97643.94;4959174;28;1578;-74
2023/11/21 10:00:17;;;;;;;;;;;;;;;20.68;28.77;97638.78;4975354;28;1508;-74
2023/11/21 10:02:43;;;;;;;;;;;;;;;20.79;28.73;97644.91;4993751;28;1703;-74
2023/11/21 10:05:11;;;;;;;;;;;;;;;20.86;28.69;97643.09;4994246;28;1922;-74
2023/11/21 10:07:37;;;;;;;;;;;;;;;21.09;28.23;97640.00;4994596;28;1580;-75
2023/11/21 10:10:02;;;;;;;;;;;;;;;20.96;28.26;97642.00;4978252;28;1531;-74
2023/11/21 10:12:28;;;;;;;;;;;;;;;21.06;28.29;97646.53;4994152;28;1482;-74
2023/11/21 10:14:54;;;;;;;;;;;;;;;20.29;28.93;97598.22;4994508;28;1528;-74
2023/11/21 10:17:19;;;;;;;;;;;;;;;21.14;28.16;97639.44;4995416;28;1434;-74
2023/11/21 10:19:48;;;;;;;;;;;;;;;21.52;27.42;97628.16;5018935;28;2658;-75
2023/11/21 10:22:14;;;;;;;;;;;;;;;21.38;27.36;97627.81;5031071;28;1512;-74
2023/11/21 10:24:40;;;;;;;;;;;;;;;21.09;28.02;97634.34;5031683;28;1978;-74
2023/11/21 10:27:05;;;;;;;;;;;;;;;21.02;28.20;97634.53;5002338;28;1413;-74
2023/11/21 10:29:35;;;;;;;;;;;;;;;21.04;28.20;97638.50;5003657;28;1445;-74
2023/11/21 10:32:01;;;;;;;;;;;;;;;21.20;28.01;97623.47;5017015;28;1468;-75
2023/11/21 10:34:27;;;;;;;;;;;;;;;20.70;28.44;97624.19;5015003;28;1532;-74
2023/11/21 10:36:53;;;;;;;;;;;;;;;21.17;27.80;97630.03;5014888;28;1365;-74
2023/11/21 10:39:19;;;;;;;;;;;;;;;21.32;27.61;97619.88;5014680;28;1314;-75
2023/11/21 10:41:48;;;;;;;;;;;;;;;21.50;27.50;97619.34;5014546;28;1602;-74
2023/11/21 10:44:16;;;;;;;;;;;;;;;21.36;27.39;97616.16;5014334;28;1922;-74
2023/11/21 10:46:43;;;;;;;;;;;;;;;21.56;27.12;97622.38;5015099;28;1448;-74
2023/11/21 10:49:09;;;;;;;;;;;;;;;21.57;26.97;97624.75;4998444;28;1494;-75
2023/11/21 10:51:35;;;;;;;;;;;;;;;21.22;27.76;97625.84;5014600;28;1631;-74
2023/11/21 10:54:00;;;;;;;;;;;;;;;21.31;27.58;97618.31;5016049;28;1417;-74
2023/11/21 10:56:26;;;;;;;;;;;;;;;21.49;27.08;97616.94;5016226;28;1427;-74
2023/11/21 10:58:51;;;;;;;;;;;;;;;21.24;27.71;97612.84;5014247;28;1549;-74
2023/11/21 11:01:17;;;;;;;;;;;;;;;20.92;28.11;97619.47;5014795;28;1717;-74
2023/11/21 11:03:43;;;;;;;;;;;;;;;21.52;27.09;97607.56;4997749;28;1906;-74
2023/11/21 11:06:11;;;;;;;;;;;;;;;21.30;27.55;97616.72;5031097;28;1502;-74
2023/11/21 11:08:37;;;;;;;;;;;;;;;20.97;27.98;97610.44;5032895;28;1394;-74
2023/11/21 11:11:04;;;;;;;;;;;;;;;21.20;27.65;97605.72;5002197;28;1553;-73
2023/11/21 11:13:30;;;;;;;;;;;;;;;21.72;27.32;97595.97;5020920;28;1545;-74
2023/11/21 11:15:59;;;;;;;;;;;;;;;21.57;27.74;97602.09;5020585;28;1333;-74
2023/11/21 11:18:25;;;;;;;;;;;;;;;21.81;27.64;97602.53;5020807;28;1452;-74
2023/11/21 11:20:50;;;;;;;;;;;;;;;21.56;28.07;97588.41;5020726;28;1769;-73
2023/11/21 11:23:31;;;;;;;;;;;;;;;21.87;27.69;97588.59;5020479;28;1898;-74
2023/11/21 11:26:11;;;;;;;;;;;;;;;21.36;28.33;97596.34;5036751;28;1373;-74
2023/11/21 11:28:42;;;;;;;;;;;;;;;20.34;29.90;97596.09;5028198;28;1518;-74
2023/11/21 11:31:24;;;;;;;;;;;;;;;21.42;28.12;97583.22;5036668;28;1587;-74
2023/11/21 11:33:53;;;;;;;;;;;;;;;21.41;28.05;97576.75;5020123;28;1598;-74
2023/11/21 11:36:21;;;;;;;;;;;;;;;21.33;28.23;97575.41;4996944;28;1519;-74
2023/11/21 11:38:49;;;;;;;;;;;;;;;21.24;28.26;97584.56;4995734;28;1330;-74
2023/11/21 11:41:16;;;;;;;;;;;;;;;20.95;29.04;97581.03;4997048;28;1577;-74
2023/11/21 11:43:44;;;;;;;;;;;;;;;21.00;28.52;97583.28;4996928;28;1972;-74
2023/11/21 11:46:10;;;;;;;;;;;;;;;21.17;28.35;97573.44;5005643;28;1496;-74
2023/11/21 11:48:39;;;;;;;;;;;;;;;21.20;28.42;97578.22;4977290;28;1662;-73
2023/11/21 11:51:13;;;;;;;;;;;;;;;20.94;28.84;97576.63;4977351;28;1406;-74
2023/11/21 11:53:42;;;;;;;;;;;;;;;21.38;28.05;97576.88;4977337;28;1410;-75
2023/11/21 11:56:25;;;;;;;;;;;;;;;21.32;27.99;97573.81;4961187;28;1470;-74
2023/11/21 11:58:51;;;;;;;;;;;;;;;21.45;27.74;97582.28;4977339;28;1481;-75
2023/11/21 12:01:17;;;;;;;;;;;;;;;21.12;28.56;97582.50;4977818;28;1573;-74
2023/11/21 12:03:43;;;;;;;;;;;;;;;21.26;28.12;97579.22;4961066;28;1987;-75
2023/11/21 12:06:11;;;;;;;;;;;;;;;21.11;28.34;97580.91;4969360;28;1614;-73
2023/11/21 12:08:37;;;;;;;;;;;;;;;21.12;28.33;97579.66;4983162;28;1597;-74
2023/11/21 12:11:03;;;;;;;;;;;;;;;20.82;28.74;97575.34;4983069;28;1565;-74
2023/11/21 12:13:29;;;;;;;;;;;;;;;21.07;28.53;97583.06;4981869;28;1604;-74
2023/11/21 12:15:54;;;;;;;;;;;;;;;20.71;28.78;97586.97;4983195;28;1470;-74
2023/11/21 12:18:21;;;;;;;;;;;;;;;20.97;28.63;97570.03;4982094;28;1398;-75
2023/11/21 12:20:48;;;;;;;;;;;;;;;20.61;29.31;97571.09;4968093;28;1552;-74
2023/11/21 12:23:16;;;;;;;;;;;;;;;20.73;29.13;97573.19;4998926;28;1902;-74
2023/11/21 12:25:43;;;;;;;;;;;;;;;21.17;28.05;97562.13;4976812;28;1498;-74
2023/11/21 12:28:08;;;;;;;;;;;;;;;21.40;27.54;97563.03;4961002;28;1392;-73
2023/11/21 12:30:37;;;;;;;;;;;;;;;20.71;28.66;97570.00;4960730;28;1582;-74
2023/11/21 12:33:03;;;;;;;;;;;;;;;21.06;28.00;97570.16;4976267;28;1470;-74
2023/11/21 12:35:30;;;;;;;;;;;;;;;21.18;28.56;97562.91;4976827;28;1456;-74
2023/11/21 12:37:58;;;;;;;;;;;;;;;21.75;27.43;97561.84;4942246;28;1531;-75
2023/11/21 12:40:25;;;;;;;;;;;;;;;21.69;27.47;97558.03;4976710;28;1633;-74
2023/11/21 12:42:54;;;;;;;;;;;;;;;21.35;28.07;97555.13;4946301;29;1591;-74
2023/11/21 12:45:20;;;;;;;;;;;;;;;21.02;28.32;97555.34;4953460;28;1977;-75
2023/11/21 12:47:45;;;;;;;;;;;;;;;21.38;27.91;97552.19;4976080;28;1438;-74
2023/11/21 12:50:19;;;;;;;;;;;;;;;21.06;28.09;97550.38;4976409;28;1390;-75
2023/11/21 12:52:47;;;;;;;;;;;;;;;21.14;27.89;97551.75;4944311;28;1817;-73